Time;durP1;ratioP1;P1;durP2;ratioP2;P2;SDS_P1;SDS_P2;PMS_P1;PMS_P2;Temp;Humidity;BMP_temperature;BMP_pressure;BME280_temperature;BME280_humidity;BME280_pressure;Samples;Min_cycle;Max_cycle;Signal;HPM_P1;HPM_P2
2022/10/24 00:01:38;;;;;;;0.40;0.40;;;17.20;1.00;;;;;;5068200;28;20203;-75
2022/10/24 00:04:04;;;;;;;0.40;0.40;;;17.10;99.90;;;;;;5074819;28;20273;-75
2022/10/24 00:06:29;;;;;;;0.40;0.40;;;17.10;99.90;;;;;;5080976;28;20178;-75
2022/10/24 00:08:55;;;;;;;0.40;0.40;;;17.10;99.90;;;;;;5071476;28;20215;-75
2022/10/24 00:11:25;;;;;;;0.50;0.50;;;16.90;1.00;;;;;;5068080;28;20202;-75
2022/10/24 00:13:51;;;;;;;0.37;0.37;;;16.80;1.00;;;;;;5071947;28;20186;-75
2022/10/24 00:16:17;;;;;;;0.40;0.40;;;16.60;1.00;;;;;;5071941;28;20182;-75
2022/10/24 00:18:43;;;;;;;0.40;0.40;;;16.50;1.00;;;;;;5071582;28;20174;-75
2022/10/24 00:21:09;;;;;;;0.40;0.40;;;16.40;1.00;;;;;;5066960;28;20202;-74
2022/10/24 00:23:35;;;;;;;0.40;0.40;;;16.20;1.00;;;;;;5071532;28;20194;-75
2022/10/24 00:26:02;;;;;;;0.40;0.40;;;16.10;99.90;;;;;;5071924;28;20181;-75
2022/10/24 00:28:29;;;;;;;0.40;0.40;;;15.90;1.00;;;;;;5071172;28;20182;-75
2022/10/24 00:30:56;;;;;;;0.40;0.40;;;15.70;99.90;;;;;;5064161;28;20265;-75
2022/10/24 00:33:21;;;;;;;0.40;0.40;;;15.60;99.90;;;;;;5071676;28;20178;-74
2022/10/24 00:35:47;;;;;;;0.40;0.40;;;15.60;99.90;;;;;;5071615;28;20522;-75
2022/10/24 00:38:13;;;;;;;0.40;0.40;;;15.60;99.90;;;;;;5071105;28;20224;-75
2022/10/24 00:40:39;;;;;;;0.33;0.33;;;15.80;1.00;;;;;;5064007;28;20233;-75
2022/10/24 00:43:12;;;;;;;0.30;0.30;;;15.90;99.90;;;;;;5071122;28;20202;-75
2022/10/24 00:45:40;;;;;;;0.30;0.30;;;15.60;99.90;;;;;;5071515;28;20204;-75
2022/10/24 00:48:27;;;;;;;0.40;0.40;;;15.50;1.00;;;;;;5071267;28;20223;-75
2022/10/24 00:51:31;;;;;;;0.50;0.50;;;15.40;99.90;;;;;;5064521;28;20209;-76
2022/10/24 00:54:03;;;;;;;0.40;0.40;;;15.40;99.90;;;;;;5071376;28;20174;-74
2022/10/24 00:56:33;;;;;;;0.47;0.47;;;15.50;52.90;;;;;;5071281;28;20170;-75
2022/10/24 00:59:02;;;;;;;0.43;0.43;;;15.80;1.00;;;;;;5070518;28;20217;-74
2022/10/24 01:01:28;;;;;;;0.40;0.40;;;15.50;1.00;;;;;;5065205;28;20234;-74
2022/10/24 01:03:53;;;;;;;0.50;0.50;;;15.00;1.00;;;;;;5071225;28;20177;-74
2022/10/24 01:07:00;;;;;;;0.50;0.50;;;14.90;1.00;;;;;;5071281;28;20261;-74
2022/10/24 01:10:00;;;;;;;0.50;0.50;;;15.50;99.90;;;;;;5027794;28;20221;-74
2022/10/24 01:12:58;;;;;;;0.40;0.40;;;15.30;1.00;;;;;;5067402;28;20197;-73
2022/10/24 01:16:10;;;;;;;0.30;0.30;;;15.80;1.00;;;;;;5034955;28;20231;-75
2022/10/24 01:18:46;;;;;;;0.40;0.40;;;15.60;99.90;;;;;;4969703;28;20182;-75
2022/10/24 01:21:24;;;;;;;0.40;0.40;;;15.50;1.00;;;;;;5059034;28;20201;-75
2022/10/24 01:23:59;;;;;;;0.40;0.40;;;15.20;1.00;;;;;;5070559;28;20324;-74
2022/10/24 01:27:03;;;;;;;0.40;0.40;;;15.60;99.90;;;;;;5070863;28;20635;-74
2022/10/24 01:29:49;;;;;;;0.50;0.50;;;15.80;1.00;;;;;;5059817;28;20213;-74
2022/10/24 01:32:33;;;;;;;0.40;0.40;;;15.60;99.90;;;;;;5064054;28;20611;-74
2022/10/24 01:35:09;;;;;;;0.40;0.40;;;15.60;1.00;;;;;;5056672;28;20543;-74
2022/10/24 01:38:06;;;;;;;0.40;0.40;;;15.40;1.00;;;;;;5070888;28;20196;-74
2022/10/24 01:40:50;;;;;;;0.40;0.40;;;15.50;1.00;;;;;;5064550;28;20190;-74
2022/10/24 01:43:21;;;;;;;0.50;0.50;;;15.30;1.00;;;;;;5070660;28;20174;-75
2022/10/24 01:45:52;;;;;;;0.40;0.40;;;15.30;1.00;;;;;;5071024;28;20174;-75
2022/10/24 01:48:22;;;;;;;0.50;0.50;;;15.30;1.00;;;;;;5070478;28;20528;-74
2022/10/24 01:50:52;;;;;;;0.33;0.33;;;15.30;1.00;;;;;;5067025;28;20209;-75
2022/10/24 01:53:18;;;;;;;0.40;0.40;;;15.30;1.00;;;;;;5070403;28;20262;-74
2022/10/24 01:55:45;;;;;;;0.40;0.40;;;15.60;1.00;;;;;;5071037;28;20182;-74
2022/10/24 01:58:11;;;;;;;0.40;0.40;;;15.70;1.00;;;;;;5070783;28;20190;-75
2022/10/24 02:00:37;;;;;;;0.40;0.40;;;15.50;1.00;;;;;;5065705;28;20206;-74
2022/10/24 02:03:18;;;;;;;0.50;0.50;;;15.40;1.00;;;;;;5071096;28;20170;-74
2022/10/24 02:05:50;;;;;;;0.30;0.30;;;15.40;1.00;;;;;;5070302;28;20178;-74
2022/10/24 02:08:20;;;;;;;0.40;0.40;;;15.30;1.00;;;;;;5070594;28;20269;-74
2022/10/24 02:10:49;;;;;;;0.33;0.33;;;15.10;1.00;;;;;;5063857;28;20207;-75
2022/10/24 02:13:23;;;;;;;0.40;0.40;;;15.10;1.00;;;;;;5068105;28;20179;-75
2022/10/24 02:15:54;;;;;;;0.40;0.40;;;15.20;1.00;;;;;;5074361;28;20178;-74
2022/10/24 02:18:20;;;;;;;0.40;0.40;;;15.10;1.00;;;;;;5074334;28;20182;-74
2022/10/24 02:21:05;;;;;;;0.40;0.40;;;15.00;1.00;;;;;;5065384;28;20207;-74
2022/10/24 02:23:40;;;;;;;0.43;0.43;;;15.00;1.00;;;;;;5071565;28;20639;-74
2022/10/24 02:26:10;;;;;;;0.40;0.40;;;15.20;1.00;;;;;;5074215;28;20186;-74
2022/10/24 02:28:42;;;;;;;0.30;0.30;;;15.40;1.00;;;;;;5073857;28;20186;-74
2022/10/24 02:31:16;;;;;;;0.30;0.30;;;15.50;1.00;;;;;;5062064;28;20664;-74
2022/10/24 02:33:45;;;;;;;0.50;0.50;;;15.40;1.00;;;;;;5073027;28;20260;-75
2022/10/24 02:36:15;;;;;;;0.40;0.40;;;15.40;1.00;;;;;;5073962;28;20197;-74
2022/10/24 02:38:43;;;;;;;0.50;0.50;;;15.40;1.00;;;;;;5073767;28;20171;-74
2022/10/24 02:41:13;;;;;;;0.43;0.43;;;15.40;1.00;;;;;;5061372;28;20664;-75
2022/10/24 02:43:41;;;;;;;0.50;0.50;;;15.50;1.00;;;;;;5070936;28;20523;-74
2022/10/24 02:46:09;;;;;;;0.50;0.50;;;15.50;16.40;;;;;;5073854;28;20183;-75
2022/10/24 02:48:41;;;;;;;0.40;0.40;;;15.40;34.70;;;;;;5073586;28;20175;-74
2022/10/24 02:51:07;;;;;;;0.53;0.53;;;15.40;99.90;;;;;;5061998;28;20199;-74
2022/10/24 02:53:35;;;;;;;0.50;0.50;;;14.70;99.90;;;;;;5073259;28;20173;-75
2022/10/24 02:56:01;;;;;;;0.50;0.50;;;14.60;99.90;;;;;;5073737;28;20244;-74
2022/10/24 02:58:27;;;;;;;0.50;0.50;;;14.60;99.90;;;;;;5073337;28;20179;-75
2022/10/24 03:00:52;;;;;;;0.40;0.40;;;14.60;99.90;;;;;;5063758;28;20209;-74
2022/10/24 03:03:18;;;;;;;0.40;0.40;;;14.90;99.90;;;;;;5072060;28;20219;-74
2022/10/24 03:05:43;;;;;;;0.40;0.40;;;14.90;99.90;;;;;;5073498;28;20240;-74
2022/10/24 03:08:10;;;;;;;0.40;0.40;;;14.70;99.90;;;;;;5073166;28;20554;-74
2022/10/24 03:10:36;;;;;;;0.50;0.50;;;14.50;99.90;;;;;;5065353;28;20301;-74
2022/10/24 03:13:02;;;;;;;0.37;0.37;;;14.50;99.90;;;;;;5071115;28;20261;-74
2022/10/24 03:15:28;;;;;;;0.50;0.50;;;14.50;99.90;;;;;;5072992;28;20170;-74
2022/10/24 03:17:53;;;;;;;0.40;0.40;;;14.50;99.90;;;;;;5073508;28;20170;-75
2022/10/24 03:20:19;;;;;;;0.50;0.50;;;14.60;99.90;;;;;;5068025;28;20231;-73
2022/10/24 03:22:44;;;;;;;0.40;0.40;;;14.60;99.90;;;;;;5065070;28;20178;-74
2022/10/24 03:25:10;;;;;;;0.40;0.40;;;14.70;99.90;;;;;;5073209;28;20182;-75
2022/10/24 03:27:36;;;;;;;0.50;0.50;;;14.60;99.90;;;;;;5062189;28;20175;-74
2022/10/24 03:30:02;;;;;;;0.40;0.40;;;14.60;99.90;;;;;;5070008;28;20301;-74
2022/10/24 03:32:28;;;;;;;0.40;0.40;;;14.60;99.90;;;;;;5063457;28;20662;-74
2022/10/24 03:34:54;;;;;;;0.50;0.50;;;14.60;99.90;;;;;;5072970;28;20178;-74
2022/10/24 03:37:19;;;;;;;0.40;0.40;;;14.60;99.90;;;;;;5072335;28;20240;-74
2022/10/24 03:39:45;;;;;;;0.50;0.50;;;14.50;99.90;;;;;;5072423;28;20178;-75
2022/10/24 03:42:11;;;;;;;0.50;0.50;;;14.60;99.90;;;;;;5067896;28;20682;-75
2022/10/24 03:44:36;;;;;;;0.40;0.40;;;14.60;99.90;;;;;;5072286;28;20784;-75
2022/10/24 03:47:02;;;;;;;0.40;0.40;;;14.60;99.90;;;;;;5072439;28;20233;-75
2022/10/24 03:49:27;;;;;;;0.60;0.60;;;14.70;99.90;;;;;;5072004;28;20602;-74
2022/10/24 03:51:53;;;;;;;0.40;0.40;;;14.90;99.90;;;;;;5067761;28;20214;-74
2022/10/24 03:54:18;;;;;;;0.47;0.47;;;14.80;99.90;;;;;;5063899;28;20648;-74
2022/10/24 03:56:46;;;;;;;0.50;0.50;;;14.90;99.90;;;;;;5055808;28;20711;-74
2022/10/24 03:59:12;;;;;;;0.50;0.50;;;14.90;99.90;;;;;;5070700;28;20596;-74
2022/10/24 04:01:38;;;;;;;0.40;0.40;;;15.10;99.90;;;;;;5068638;28;20233;-75
2022/10/24 04:04:04;;;;;;;0.40;0.40;;;15.10;99.90;;;;;;5072136;28;20606;-74
2022/10/24 04:06:29;;;;;;;0.50;0.50;;;15.10;99.90;;;;;;5071183;28;20695;-75
2022/10/24 04:08:55;;;;;;;0.40;0.40;;;15.00;99.90;;;;;;5071186;28;20218;-73
2022/10/24 04:11:22;;;;;;;0.40;0.40;;;15.10;99.90;;;;;;5067507;28;20202;-74
2022/10/24 04:13:47;;;;;;;0.50;0.50;;;15.10;99.90;;;;;;5071252;28;20178;-74
2022/10/24 04:16:13;;;;;;;0.33;0.33;;;15.00;99.90;;;;;;5071691;28;20174;-74
2022/10/24 04:18:38;;;;;;;0.50;0.50;;;15.00;99.90;;;;;;5071681;28;20178;-74
2022/10/24 04:21:04;;;;;;;0.47;0.47;;;15.00;99.90;;;;;;5067568;28;20579;-75
2022/10/24 04:23:34;;;;;;;0.40;0.40;;;15.00;99.90;;;;;;5071581;28;20561;-74
2022/10/24 04:26:00;;;;;;;0.40;0.40;;;15.00;99.90;;;;;;5071730;28;20547;-74
2022/10/24 04:28:26;;;;;;;0.33;0.33;;;15.20;99.90;;;;;;5071712;28;20194;-75
2022/10/24 04:30:56;;;;;;;0.40;0.40;;;15.20;99.90;;;;;;5066894;28;20198;-74
2022/10/24 04:33:21;;;;;;;0.30;0.30;;;15.10;99.90;;;;;;5071316;28;20174;-75
2022/10/24 04:35:48;;;;;;;0.50;0.50;;;15.00;99.90;;;;;;5071239;28;20689;-74
2022/10/24 04:38:14;;;;;;;0.50;0.50;;;15.10;99.90;;;;;;5071415;28;20662;-75
2022/10/24 04:40:39;;;;;;;0.40;0.40;;;15.00;99.90;;;;;;5066357;28;20213;-74
2022/10/24 04:43:04;;;;;;;0.30;0.30;;;15.00;99.90;;;;;;5071269;28;20188;-75
2022/10/24 04:45:30;;;;;;;0.40;0.40;;;14.60;99.90;;;;;;5071223;28;20182;-74
2022/10/24 04:47:55;;;;;;;0.40;0.40;;;14.60;99.90;;;;;;5071320;28;20189;-75
2022/10/24 04:50:21;;;;;;;0.30;0.30;;;14.50;99.90;;;;;;5065266;28;20624;-74
2022/10/24 04:52:47;;;;;;;0.50;0.50;;;14.40;99.90;;;;;;5069690;28;20577;-74
2022/10/24 04:55:12;;;;;;;0.40;0.40;;;14.20;99.90;;;;;;5071563;28;20620;-75
2022/10/24 04:57:38;;;;;;;0.47;0.47;;;14.10;99.90;;;;;;5071371;28;20185;-74
2022/10/24 05:00:04;;;;;;;0.50;0.50;;;14.10;99.90;;;;;;5059994;28;20170;-75
2022/10/24 05:02:30;;;;;;;0.43;0.43;;;14.30;99.90;;;;;;5068470;28;20181;-76
2022/10/24 05:04:55;;;;;;;0.40;0.40;;;14.50;99.90;;;;;;5077143;28;20182;-75
2022/10/24 05:07:21;;;;;;;0.40;0.40;;;14.60;99.90;;;;;;5071775;28;20175;-75
2022/10/24 05:09:46;;;;;;;0.50;0.50;;;14.90;99.90;;;;;;5076305;28;20203;-75
2022/10/24 05:12:12;;;;;;;0.37;0.37;;;15.10;99.90;;;;;;5066981;28;20198;-75
2022/10/24 05:14:38;;;;;;;0.40;0.40;;;15.10;99.90;;;;;;5079307;28;20171;-74
2022/10/24 05:17:03;;;;;;;0.47;0.47;;;14.90;99.90;;;;;;5071116;28;20171;-76
2022/10/24 05:19:29;;;;;;;0.50;0.50;;;15.00;99.90;;;;;;5070399;28;20542;-75
2022/10/24 05:21:55;;;;;;;0.50;0.50;;;15.10;99.90;;;;;;5063838;28;20411;-75
2022/10/24 05:24:20;;;;;;;0.50;0.50;;;15.00;99.90;;;;;;5065462;28;20584;-75
2022/10/24 05:26:46;;;;;;;0.47;0.47;;;15.00;99.90;;;;;;5068304;28;20205;-74
2022/10/24 05:34:58;;;;;;;0.50;0.50;;;14.90;99.90;;;;;;5123281;27;20533;-85
2022/10/24 05:37:24;;;;;;;0.60;0.60;;;14.90;99.90;;;;;;5090574;28;20654;-84
2022/10/24 05:39:49;;;;;;;0.50;0.50;;;15.00;99.90;;;;;;5092606;28;20177;-82
2022/10/24 05:42:15;;;;;;;0.47;0.47;;;15.20;93.40;;;;;;5096001;28;20223;-84
2022/10/24 05:44:41;;;;;;;0.50;0.50;;;15.30;56.10;;;;;;5097398;28;20278;-84
2022/10/24 05:47:07;;;;;;;0.43;0.43;;;15.30;66.90;;;;;;5090460;28;20181;-79
2022/10/24 05:49:32;;;;;;;0.50;0.50;;;15.40;33.10;;;;;;5091137;28;20178;-81
2022/10/24 05:51:58;;;;;;;0.50;0.50;;;15.40;20.70;;;;;;5095001;28;20587;-80
2022/10/24 05:54:24;;;;;;;0.57;0.57;;;15.40;9.60;;;;;;5081349;28;20217;-79
2022/10/24 05:56:49;;;;;;;0.40;0.40;;;15.50;19.70;;;;;;5083873;28;20205;-80
2022/10/24 05:59:15;;;;;;;0.40;0.40;;;15.40;48.80;;;;;;5077051;28;20210;-78
2022/10/24 06:01:40;;;;;;;0.50;0.50;;;15.40;54.80;;;;;;5071682;28;20241;-79
2022/10/24 06:04:07;;;;;;;0.60;0.60;;;15.40;44.60;;;;;;5076099;28;20678;-79
2022/10/24 06:06:36;;;;;;;0.53;0.53;;;15.40;74.80;;;;;;5070454;28;20175;-81
2022/10/24 06:09:03;;;;;;;0.50;0.50;;;15.30;86.70;;;;;;5076693;28;20178;-78
2022/10/24 06:11:28;;;;;;;0.47;0.47;;;15.30;99.90;;;;;;5084470;28;20194;-82
2022/10/24 06:13:54;;;;;;;0.50;0.50;;;15.10;99.90;;;;;;5075727;28;20214;-80
2022/10/24 06:16:19;;;;;;;0.60;0.60;;;15.10;99.90;;;;;;5078352;28;20187;-79
2022/10/24 06:18:45;;;;;;;0.50;0.50;;;15.10;99.90;;;;;;5091457;28;20231;-79
2022/10/24 06:21:12;;;;;;;0.50;0.50;;;15.10;99.90;;;;;;5087884;28;20198;-80
2022/10/24 06:23:38;;;;;;;0.50;0.50;;;15.20;95.80;;;;;;5077896;28;20639;-80
2022/10/24 06:26:08;;;;;;;0.50;0.50;;;15.30;71.90;;;;;;5088950;28;20193;-80
2022/10/24 06:28:34;;;;;;;0.40;0.40;;;15.30;99.90;;;;;;5088490;28;20681;-84
2022/10/24 06:31:02;;;;;;;0.60;0.60;;;15.30;99.90;;;;;;5079486;28;20293;-82
2022/10/24 06:33:28;;;;;;;0.50;0.50;;;15.40;99.90;;;;;;5075791;28;20213;-81
2022/10/24 06:35:53;;;;;;;0.50;0.50;;;15.10;99.90;;;;;;5089741;28;20190;-80
2022/10/24 06:38:19;;;;;;;0.40;0.40;;;15.00;99.90;;;;;;5088949;28;20182;-80
2022/10/24 06:40:45;;;;;;;0.50;0.50;;;15.00;99.90;;;;;;5086834;28;20208;-82
2022/10/24 06:43:10;;;;;;;0.60;0.60;;;15.00;99.90;;;;;;5087179;28;20654;-79
2022/10/24 06:45:39;;;;;;;0.50;0.50;;;15.00;99.90;;;;;;5071679;28;20236;-80
2022/10/24 06:48:05;;;;;;;0.43;0.43;;;14.90;99.90;;;;;;5067005;28;20202;-80
2022/10/24 06:50:30;;;;;;;0.50;0.50;;;15.00;99.90;;;;;;5074439;28;20222;-82
2022/10/24 06:52:56;;;;;;;0.43;0.43;;;15.00;99.90;;;;;;5072899;28;20233;-80
2022/10/24 06:55:21;;;;;;;0.60;0.60;;;15.00;99.90;;;;;;5063169;28;20194;-81
2022/10/24 06:57:47;;;;;;;0.40;0.40;;;15.00;99.90;;;;;;5074692;28;20179;-81
2022/10/24 07:00:13;;;;;;;0.43;0.43;;;14.90;99.90;;;;;;5073128;28;20741;-80
2022/10/24 07:02:39;;;;;;;0.50;0.50;;;15.00;99.90;;;;;;5061988;28;20652;-79
2022/10/24 07:05:08;;;;;;;0.60;0.60;;;15.00;99.90;;;;;;5067503;28;20216;-80
2022/10/24 07:07:33;;;;;;;0.50;0.50;;;14.90;99.90;;;;;;5063177;28;20260;-80
2022/10/24 07:09:59;;;;;;;0.50;0.50;;;14.70;99.90;;;;;;5060606;28;20680;-79
2022/10/24 07:12:25;;;;;;;0.50;0.50;;;14.60;99.90;;;;;;5071209;28;20182;-80
2022/10/24 07:14:51;;;;;;;0.50;0.50;;;14.60;99.90;;;;;;5062135;28;20268;-79
2022/10/24 07:17:18;;;;;;;0.50;0.50;;;14.60;99.90;;;;;;5075201;28;20244;-80
2022/10/24 07:19:43;;;;;;;0.50;0.50;;;14.70;99.90;;;;;;5060578;28;20180;-79
2022/10/24 07:22:09;;;;;;;0.50;0.50;;;14.80;99.90;;;;;;5058362;28;20221;-80
2022/10/24 07:24:35;;;;;;;0.50;0.50;;;14.80;99.90;;;;;;5070654;28;20645;-79
2022/10/24 07:27:01;;;;;;;0.50;0.50;;;14.80;99.90;;;;;;5061920;28;20265;-79
2022/10/24 07:29:27;;;;;;;0.50;0.50;;;14.70;99.90;;;;;;5063667;28;20268;-78
2022/10/24 07:31:53;;;;;;;0.40;0.40;;;14.70;99.90;;;;;;5065830;28;20203;-79
2022/10/24 07:34:19;;;;;;;0.43;0.43;;;14.50;99.90;;;;;;5055374;28;20745;-81
2022/10/24 07:36:44;;;;;;;0.50;0.50;;;14.60;99.90;;;;;;5059007;28;20179;-79
2022/10/24 07:39:11;;;;;;;0.50;0.50;;;14.60;99.90;;;;;;5058507;28;20168;-81
2022/10/24 07:41:40;;;;;;;0.50;0.50;;;14.60;99.90;;;;;;5062200;28;20194;-80
2022/10/24 07:44:06;;;;;;;0.50;0.50;;;14.60;99.90;;;;;;5057158;28;20179;-80
2022/10/24 07:46:31;;;;;;;0.50;0.50;;;14.50;99.90;;;;;;5071616;28;20178;-80
2022/10/24 07:48:57;;;;;;;0.50;0.50;;;14.60;99.90;;;;;;5073923;28;20717;-82
2022/10/24 07:51:22;;;;;;;0.50;0.50;;;14.40;99.90;;;;;;5074237;28;20190;-79
2022/10/24 07:53:49;;;;;;;0.50;0.50;;;14.40;99.90;;;;;;5060667;28;20214;-82
2022/10/24 07:56:16;;;;;;;0.43;0.43;;;14.40;99.90;;;;;;5071369;28;20675;-81
2022/10/24 07:58:43;;;;;;;0.40;0.40;;;14.40;99.90;;;;;;5079230;28;20246;-78
2022/10/24 08:01:12;;;;;;;0.50;0.50;;;14.30;99.90;;;;;;5067248;28;20201;-81
2022/10/24 08:03:38;;;;;;;0.50;0.50;;;14.40;99.90;;;;;;5065378;28;20178;-81
2022/10/24 08:06:06;;;;;;;0.60;0.60;;;14.50;99.90;;;;;;5065617;28;20532;-80
2022/10/24 08:08:31;;;;;;;0.60;0.60;;;14.60;99.90;;;;;;5074944;28;20716;-82
2022/10/24 08:10:57;;;;;;;0.43;0.43;;;14.60;99.90;;;;;;5058294;28;20191;-80
2022/10/24 08:13:23;;;;;;;0.60;0.60;;;14.40;99.90;;;;;;5074474;28;20229;-79
2022/10/24 08:15:48;;;;;;;0.50;0.50;;;14.30;99.90;;;;;;5064063;28;20179;-78
2022/10/24 08:18:14;;;;;;;0.60;0.60;;;14.20;99.90;;;;;;5055772;28;20179;-81
2022/10/24 08:20:39;;;;;;;0.50;0.50;;;14.50;99.90;;;;;;5063187;28;20203;-80
2022/10/24 08:23:05;;;;;;;0.43;0.43;;;14.50;99.90;;;;;;5063320;28;20187;-83
2022/10/24 08:25:31;;;;;;;0.53;0.53;;;14.50;99.90;;;;;;5066434;28;20174;-82
2022/10/24 08:27:56;;;;;;;0.50;0.50;;;14.40;99.90;;;;;;5061456;28;20285;-82
2022/10/24 08:30:23;;;;;;;0.60;0.60;;;14.50;99.90;;;;;;5078763;28;20198;-83
2022/10/24 08:32:49;;;;;;;0.50;0.50;;;14.40;99.90;;;;;;5080890;28;20208;-80
2022/10/24 08:35:16;;;;;;;0.50;0.50;;;14.60;99.90;;;;;;5071199;28;20178;-81
2022/10/24 08:37:42;;;;;;;0.60;0.60;;;14.40;99.90;;;;;;5076979;28;20547;-79
2022/10/24 08:40:11;;;;;;;0.60;0.60;;;14.40;99.90;;;;;;5076601;28;20227;-80
2022/10/24 08:42:38;;;;;;;0.60;0.60;;;14.40;99.90;;;;;;5076092;28;20182;-80
2022/10/24 08:45:16;;;;;;;0.67;0.67;;;14.50;99.90;;;;;;5072445;28;20183;-82
2022/10/24 08:47:59;;;;;;;0.50;0.50;;;14.50;99.90;;;;;;5066687;28;20191;-80
2022/10/24 08:50:29;;;;;;;0.50;0.50;;;14.60;99.90;;;;;;5064803;28;20215;-81
2022/10/24 08:53:04;;;;;;;0.50;0.50;;;14.60;99.90;;;;;;5077964;28;20222;-79
2022/10/24 08:55:41;;;;;;;0.63;0.63;;;14.60;99.90;;;;;;5074779;28;20377;-82
2022/10/24 08:58:13;;;;;;;0.50;0.50;;;14.50;99.90;;;;;;5075579;28;20670;-80
2022/10/24 09:00:45;;;;;;;0.60;0.60;;;14.40;99.90;;;;;;5057068;28;20199;-80
2022/10/24 09:03:33;;;;;;;0.70;0.70;;;14.60;99.90;;;;;;5073635;28;20204;-81
2022/10/24 09:06:04;;;;;;;0.50;0.50;;;14.60;99.90;;;;;;5073526;28;20824;-81
2022/10/24 09:08:51;;;;;;;0.43;0.43;;;14.60;99.90;;;;;;5068173;28;20568;-80
2022/10/24 09:11:36;;;;;;;0.50;0.50;;;14.60;99.90;;;;;;5073296;28;20206;-81
2022/10/24 09:14:11;;;;;;;0.50;0.50;;;14.70;99.90;;;;;;5073093;28;20688;-81
2022/10/24 09:16:39;;;;;;;0.40;0.40;;;14.60;99.90;;;;;;5065657;28;20201;-81
2022/10/24 09:19:07;;;;;;;0.30;0.30;;;14.60;99.90;;;;;;5065626;28;20266;-82
2022/10/24 09:21:33;;;;;;;0.47;0.47;;;14.60;99.90;;;;;;5069287;28;20194;-81
2022/10/24 09:24:00;;;;;;;0.60;0.60;;;14.60;99.90;;;;;;5073134;28;20251;-82
2022/10/24 09:26:28;;;;;;;0.40;0.40;;;14.70;99.90;;;;;;5070113;28;20255;-81
2022/10/24 09:28:55;;;;;;;0.50;0.50;;;14.60;99.90;;;;;;5072079;28;20185;-82
2022/10/24 09:31:23;;;;;;;0.40;0.40;;;14.60;99.90;;;;;;5075927;28;20190;-81
2022/10/24 09:33:51;;;;;;;0.40;0.40;;;14.60;99.90;;;;;;5073352;28;20304;-81
2022/10/24 09:36:19;;;;;;;0.40;0.40;;;14.70;99.90;;;;;;5080249;28;20175;-81
2022/10/24 09:38:47;;;;;;;0.40;0.40;;;14.70;99.90;;;;;;5062788;28;20242;-81
2022/10/24 09:41:26;;;;;;;0.60;0.60;;;14.80;99.90;;;;;;5062431;28;20567;-81
2022/10/24 09:43:57;;;;;;;0.50;0.50;;;14.80;99.90;;;;;;5077424;28;20185;-81
2022/10/24 09:46:23;;;;;;;0.50;0.50;;;14.80;99.90;;;;;;5064768;28;20240;-82
2022/10/24 09:49:00;;;;;;;0.50;0.50;;;14.80;99.90;;;;;;5075372;28;20246;-81
2022/10/24 09:51:32;;;;;;;0.43;0.43;;;14.80;99.90;;;;;;5072968;28;20714;-81
2022/10/24 09:54:03;;;;;;;0.60;0.60;;;14.80;99.90;;;;;;5077277;28;20240;-79
2022/10/24 09:56:36;;;;;;;0.40;0.40;;;14.90;99.90;;;;;;5079812;28;20250;-79
2022/10/24 09:59:33;;;;;;;0.40;0.40;;;14.90;99.90;;;;;;5086682;28;20178;-80
2022/10/24 10:02:28;;;;;;;0.47;0.47;;;14.90;99.90;;;;;;5070624;28;20215;-79
2022/10/24 10:05:02;;;;;;;0.53;0.53;;;14.90;99.90;;;;;;5071257;28;20191;-80
2022/10/24 10:07:34;;;;;;;0.50;0.50;;;15.00;99.90;;;;;;5065853;28;20535;-80
2022/10/24 10:10:24;;;;;;;0.50;0.50;;;15.00;99.90;;;;;;5061462;28;20187;-80
2022/10/24 10:13:05;;;;;;;0.60;0.60;;;15.00;99.90;;;;;;5061272;28;20186;-80
2022/10/24 10:15:37;;;;;;;0.40;0.40;;;15.10;99.90;;;;;;5072444;28;20569;-80
2022/10/24 10:18:21;;;;;;;0.50;0.50;;;15.10;99.90;;;;;;5078118;28;20381;-80
2022/10/24 10:21:06;;;;;;;0.50;0.50;;;15.20;99.90;;;;;;5080607;28;20289;-80
2022/10/24 10:23:40;;;;;;;0.40;0.40;;;15.30;99.90;;;;;;5069811;28;20259;-81
2022/10/24 10:26:41;;;;;;;0.40;0.40;;;15.30;99.90;;;;;;5079635;28;20254;-81
2022/10/24 10:29:16;;;;;;;0.50;0.50;;;15.30;99.90;;;;;;5078634;28;20201;-81
2022/10/24 10:31:45;;;;;;;0.30;0.30;;;15.30;99.90;;;;;;5078777;28;20255;-81
2022/10/24 10:34:34;;;;;;;0.40;0.40;;;15.40;99.90;;;;;;5073288;28;20213;-79
2022/10/24 10:37:22;;;;;;;0.50;0.50;;;15.50;99.90;;;;;;5072958;28;20639;-78
2022/10/24 10:40:12;;;;;;;0.40;0.40;;;15.50;99.90;;;;;;5066612;28;20241;-79
2022/10/24 10:43:09;;;;;;;0.50;0.50;;;15.70;99.90;;;;;;5066229;28;20530;-81
2022/10/24 10:46:15;;;;;;;0.40;0.40;;;15.70;99.90;;;;;;5069235;28;20256;-80
2022/10/24 10:48:51;;;;;;;0.50;0.50;;;15.80;99.90;;;;;;5033943;28;20203;-80
2022/10/24 10:51:40;;;;;;;0.50;0.50;;;15.90;99.90;;;;;;5064443;28;20210;-80
2022/10/24 10:54:18;;;;;;;0.47;0.47;;;15.90;99.90;;;;;;5070589;28;20249;-80
2022/10/24 10:56:59;;;;;;;0.50;0.50;;;15.90;99.90;;;;;;5061019;28;20182;-81
2022/10/24 10:59:48;;;;;;;0.50;0.50;;;16.00;99.90;;;;;;5069635;28;20292;-81
2022/10/24 11:02:29;;;;;;;0.50;0.50;;;16.00;99.90;;;;;;5080402;28;20198;-81
2022/10/24 11:05:26;;;;;;;0.47;0.47;;;16.00;99.90;;;;;;5072896;28;20201;-80
2022/10/24 11:08:09;;;;;;;0.50;0.50;;;15.90;99.90;;;;;;5066515;28;20177;-82
2022/10/24 11:10:41;;;;;;;0.40;0.40;;;15.90;99.90;;;;;;5070341;28;20195;-80
2022/10/24 11:13:18;;;;;;;0.47;0.47;;;15.80;99.90;;;;;;5059405;28;20211;-81
2022/10/24 11:15:50;;;;;;;0.50;0.50;;;15.90;99.90;;;;;;5072124;28;20178;-82
2022/10/24 11:18:26;;;;;;;0.40;0.40;;;15.90;96.60;;;;;;5075935;28;20174;-81
2022/10/24 11:20:55;;;;;;;0.50;0.50;;;15.90;99.90;;;;;;5076148;28;20202;-80
2022/10/24 11:23:28;;;;;;;0.40;0.40;;;15.90;99.90;;;;;;5069676;28;20583;-79
2022/10/24 11:26:19;;;;;;;0.40;0.40;;;15.90;99.90;;;;;;5069213;28;20671;-80
2022/10/24 11:28:47;;;;;;;0.40;0.40;;;15.90;99.90;;;;;;5058594;28;20188;-79
2022/10/24 11:31:18;;;;;;;0.50;0.50;;;15.90;99.90;;;;;;5081987;28;20190;-81
2022/10/24 11:33:48;;;;;;;0.60;0.60;;;15.90;86.90;;;;;;5093319;22;20588;-78
2022/10/24 11:36:31;;;;;;;0.40;0.40;;;15.90;93.90;;;;;;5056395;28;20210;-78
2022/10/24 11:39:22;;;;;;;0.57;0.57;;;15.90;67.50;;;;;;5058038;28;20209;-78
2022/10/24 11:42:07;;;;;;;0.50;0.50;;;15.90;83.10;;;;;;5051410;28;20199;-78
2022/10/24 11:44:59;;;;;;;0.40;0.40;;;16.00;55.90;;;;;;5043525;28;20171;-77
2022/10/24 11:47:24;;;;;;;0.40;0.40;;;16.00;21.30;;;;;;5049164;28;20183;-77
2022/10/24 11:50:24;;;;;;;0.47;0.47;;;16.10;25.50;;;;;;5047932;28;20175;-76
2022/10/24 11:52:53;;;;;;;0.40;0.40;;;16.10;1.00;;;;;;5046655;28;20176;-77
2022/10/24 11:55:23;;;;;;;0.40;0.40;;;16.10;1.00;;;;;;5050678;28;20190;-75
2022/10/24 11:57:56;;;;;;;0.50;0.50;;;16.20;1.00;;;;;;5040922;28;20183;-75
2022/10/24 12:00:32;;;;;;;0.47;0.47;;;16.20;1.00;;;;;;5051868;28;20195;-75
2022/10/24 12:03:18;;;;;;;0.50;0.50;;;16.20;1.00;;;;;;5051187;28;20225;-74
2022/10/24 12:06:02;;;;;;;0.43;0.43;;;16.20;1.00;;;;;;5044501;28;20176;-75
2022/10/24 12:09:08;;;;;;;0.50;0.50;;;16.20;1.00;;;;;;5050957;28;20182;-74
2022/10/24 12:12:08;;;;;;;0.40;0.40;;;16.20;1.00;;;;;;5017514;28;20214;-75
2022/10/24 12:14:44;;;;;;;0.30;0.30;;;16.20;1.00;;;;;;5050056;28;20284;-75
2022/10/24 12:18:04;;;;;;;0.40;0.40;;;16.30;1.00;;;;;;5049812;28;20262;-74
2022/10/24 12:20:30;;;;;;;0.40;0.40;;;16.30;1.00;;;;;;4957738;28;20201;-76
2022/10/24 12:22:58;;;;;;;0.40;0.40;;;16.30;1.00;;;;;;5033029;28;20219;-75
2022/10/24 12:25:29;;;;;;;0.30;0.30;;;16.30;1.00;;;;;;5051508;28;20372;-76
2022/10/24 12:28:00;;;;;;;0.50;0.50;;;16.30;1.00;;;;;;5049755;28;20183;-75
2022/10/24 12:30:28;;;;;;;0.40;0.40;;;16.30;1.00;;;;;;5051043;28;20550;-75
2022/10/24 12:33:25;;;;;;;0.40;0.40;;;16.30;1.00;;;;;;5051061;28;20641;-75
2022/10/24 12:35:55;;;;;;;0.30;0.30;;;16.30;1.00;;;;;;5044804;28;20200;-75
2022/10/24 12:38:26;;;;;;;0.33;0.33;;;16.30;1.00;;;;;;5051748;28;20553;-75
2022/10/24 12:40:54;;;;;;;0.40;0.40;;;16.40;1.00;;;;;;5033179;28;20205;-75
2022/10/24 12:43:30;;;;;;;0.40;0.40;;;16.40;1.00;;;;;;5050997;28;20264;-75
2022/10/24 12:46:00;;;;;;;0.37;0.37;;;16.40;1.00;;;;;;5051756;28;20178;-76
2022/10/24 12:48:32;;;;;;;0.30;0.30;;;16.40;1.00;;;;;;5051516;28;20193;-76
2022/10/24 12:50:59;;;;;;;0.40;0.40;;;16.50;1.00;;;;;;5051029;28;20203;-76
2022/10/24 12:54:01;;;;;;;0.40;0.40;;;16.50;1.00;;;;;;5049680;28;20679;-75
2022/10/24 12:56:30;;;;;;;0.40;0.40;;;16.50;1.00;;;;;;5051379;28;20635;-76
2022/10/24 12:59:28;;;;;;;0.30;0.30;;;16.50;1.00;;;;;;5051279;28;20183;-76
2022/10/24 13:02:12;;;;;;;0.47;0.47;;;16.60;1.00;;;;;;5049413;28;20255;-76
2022/10/24 13:05:03;;;;;;;0.40;0.40;;;16.60;1.00;;;;;;5046540;28;20187;-76
2022/10/24 13:07:44;;;;;;;0.50;0.50;;;16.60;1.00;;;;;;5051270;28;20537;-75
2022/10/24 13:10:41;;;;;;;0.30;0.30;;;16.80;1.00;;;;;;5050061;28;20191;-75
2022/10/24 13:13:35;;;;;;;0.40;0.40;;;16.80;1.00;;;;;;5051593;28;20230;-76
2022/10/24 13:16:15;;;;;;;0.40;0.40;;;16.80;1.00;;;;;;5049215;28;20233;-76
2022/10/24 13:18:52;;;;;;;0.40;0.40;;;16.80;1.00;;;;;;5046106;28;20187;-77
2022/10/24 13:21:28;;;;;;;0.40;0.40;;;16.80;1.00;;;;;;5034985;28;20187;-77